Time;durP1;ratioP1;P1;durP2;ratioP2;P2;SDS_P1;SDS_P2;PMS_P1;PMS_P2;Temp;Humidity;BMP_temperature;BMP_pressure;BME280_temperature;BME280_humidity;BME280_pressure;Samples;Min_cycle;Max_cycle;Signal;HPM_P1;HPM_P2
2023/07/05 00:00:26;;;;;;;6.67;4.37;;;;;;;;;;5051939;28;20460;-81
2023/07/05 00:02:53;;;;;;;6.70;5.80;;;;;;;;;;5045925;28;20447;-81
2023/07/05 00:05:19;;;;;;;12.03;5.97;;;;;;;;;;5042600;28;20458;-80
2023/07/05 00:07:47;;;;;;;10.97;6.87;;;;;;;;;;5054264;28;20445;-80
2023/07/05 00:10:14;;;;;;;10.93;6.80;;;;;;;;;;5053842;28;20463;-79
2023/07/05 00:12:40;;;;;;;10.10;6.97;;;;;;;;;;5048794;28;20463;-82
2023/07/05 00:15:08;;;;;;;10.30;6.47;;;;;;;;;;5051851;28;20458;-81
2023/07/05 00:17:34;;;;;;;9.83;6.47;;;;;;;;;;5053588;28;20467;-82
2023/07/05 00:20:01;;;;;;;12.53;6.10;;;;;;;;;;5043118;28;20926;-79
2023/07/05 00:22:27;;;;;;;10.27;6.33;;;;;;;;;;5047527;28;20452;-80
2023/07/05 00:24:55;;;;;;;11.27;6.17;;;;;;;;;;5044758;28;20449;-82
2023/07/05 00:27:22;;;;;;;7.20;5.83;;;;;;;;;;5051859;28;20464;-80
2023/07/05 00:29:49;;;;;;;6.63;5.90;;;;;;;;;;5035123;28;20456;-79
2023/07/05 00:32:15;;;;;;;9.70;6.00;;;;;;;;;;5047329;28;20457;-81
2023/07/05 00:34:42;;;;;;;13.37;7.00;;;;;;;;;;5040849;28;20483;-81
2023/07/05 00:37:08;;;;;;;8.90;6.13;;;;;;;;;;5047519;28;20448;-79
2023/07/05 00:39:35;;;;;;;11.80;6.13;;;;;;;;;;5048147;28;20833;-80
2023/07/05 00:42:04;;;;;;;12.13;7.37;;;;;;;;;;5050007;28;20471;-80
2023/07/05 00:44:30;;;;;;;9.13;8.00;;;;;;;;;;5049337;28;20478;-80
2023/07/05 00:47:00;;;;;;;7.67;6.87;;;;;;;;;;5050272;28;20461;-79
2023/07/05 00:49:28;;;;;;;13.43;7.30;;;;;;;;;;5044423;28;20990;-80
2023/07/05 00:51:57;;;;;;;10.23;7.03;;;;;;;;;;5052222;28;20451;-79
2023/07/05 00:54:26;;;;;;;11.07;6.40;;;;;;;;;;5042760;28;20472;-81
2023/07/05 00:56:54;;;;;;;10.70;7.87;;;;;;;;;;5043117;28;20535;-81
2023/07/05 00:59:23;;;;;;;12.73;7.40;;;;;;;;;;5042743;28;20471;-80
2023/07/05 01:01:50;;;;;;;12.67;7.53;;;;;;;;;;5049356;28;20425;-81
2023/07/05 01:04:16;;;;;;;18.17;8.57;;;;;;;;;;5049794;28;20818;-82
2023/07/05 01:06:43;;;;;;;13.30;7.10;;;;;;;;;;5050984;28;20932;-81
2023/07/05 01:09:09;;;;;;;11.30;7.23;;;;;;;;;;5037453;28;20476;-81
2023/07/05 01:11:39;;;;;;;13.03;7.83;;;;;;;;;;5053328;28;20459;-81
2023/07/05 01:14:08;;;;;;;15.97;8.43;;;;;;;;;;5051576;28;20502;-81
2023/07/05 01:16:44;;;;;;;8.50;7.60;;;;;;;;;;5053376;28;20448;-81
2023/07/05 01:19:21;;;;;;;21.57;8.77;;;;;;;;;;5046001;28;20453;-81
2023/07/05 01:21:52;;;;;;;15.53;8.13;;;;;;;;;;5045329;28;20486;-80
2023/07/05 01:24:44;;;;;;;10.63;7.43;;;;;;;;;;5051986;28;20506;-81
2023/07/05 01:27:30;;;;;;;12.43;8.07;;;;;;;;;;5045613;28;20936;-81
2023/07/05 01:30:08;;;;;;;10.87;8.10;;;;;;;;;;5047711;28;20440;-82
2023/07/05 01:32:38;;;;;;;15.23;8.27;;;;;;;;;;5046529;28;20438;-81
2023/07/05 01:35:08;;;;;;;19.07;8.73;;;;;;;;;;5053368;28;20492;-81
2023/07/05 01:37:36;;;;;;;11.00;7.80;;;;;;;;;;5047436;28;20481;-81
2023/07/05 01:40:11;;;;;;;16.03;7.40;;;;;;;;;;5044241;28;20944;-81
2023/07/05 01:42:38;;;;;;;12.53;7.90;;;;;;;;;;5040603;28;20426;-81
2023/07/05 01:45:05;;;;;;;10.63;8.27;;;;;;;;;;5028403;28;20415;-81
2023/07/05 01:47:34;;;;;;;11.67;8.13;;;;;;;;;;5027595;28;20450;-81
2023/07/05 01:50:10;;;;;;;15.53;8.00;;;;;;;;;;5031738;28;20954;-81
2023/07/05 01:52:43;;;;;;;10.73;7.27;;;;;;;;;;5032329;28;20438;-81
2023/07/05 01:55:14;;;;;;;16.13;8.80;;;;;;;;;;5032857;28;20443;-81
2023/07/05 01:57:43;;;;;;;10.47;7.13;;;;;;;;;;5026653;28;20444;-81
2023/07/05 02:00:12;;;;;;;17.97;8.43;;;;;;;;;;5027804;28;20427;-80
2023/07/05 02:02:40;;;;;;;11.97;7.60;;;;;;;;;;5024482;28;20463;-81
2023/07/05 02:05:09;;;;;;;14.60;8.77;;;;;;;;;;5024641;28;20442;-81
2023/07/05 02:07:36;;;;;;;12.97;8.40;;;;;;;;;;5028353;28;20472;-81
2023/07/05 02:10:03;;;;;;;13.70;8.87;;;;;;;;;;5031971;28;20460;-80
2023/07/05 02:12:29;;;;;;;10.73;8.20;;;;;;;;;;5030821;28;20439;-81
2023/07/05 02:14:56;;;;;;;21.93;9.67;;;;;;;;;;5026389;28;20503;-81
2023/07/05 02:17:24;;;;;;;13.73;7.93;;;;;;;;;;5029502;28;20996;-81
2023/07/05 02:19:50;;;;;;;11.47;7.50;;;;;;;;;;5036352;28;20854;-80
2023/07/05 02:22:19;;;;;;;12.20;7.40;;;;;;;;;;5035334;28;20453;-81
2023/07/05 02:24:45;;;;;;;12.03;8.33;;;;;;;;;;5034717;28;20863;-82
2023/07/05 02:27:12;;;;;;;13.70;9.03;;;;;;;;;;5025248;28;20419;-81
2023/07/05 02:29:39;;;;;;;16.33;8.23;;;;;;;;;;5033135;28;20861;-82
2023/07/05 02:32:05;;;;;;;8.90;7.67;;;;;;;;;;5029268;28;20945;-83
2023/07/05 02:34:32;;;;;;;11.80;8.80;;;;;;;;;;5026658;28;20455;-81
2023/07/05 02:36:58;;;;;;;14.77;8.90;;;;;;;;;;5035502;28;20962;-82
2023/07/05 02:39:26;;;;;;;10.37;9.00;;;;;;;;;;5024513;28;20473;-81
2023/07/05 02:41:52;;;;;;;16.20;10.53;;;;;;;;;;5036117;28;20453;-82
2023/07/05 02:44:18;;;;;;;10.80;8.60;;;;;;;;;;5027645;28;20477;-80
2023/07/05 02:46:45;;;;;;;17.40;10.60;;;;;;;;;;5028931;28;20458;-81
2023/07/05 02:49:12;;;;;;;11.97;9.37;;;;;;;;;;5033761;28;20475;-80
2023/07/05 02:51:39;;;;;;;15.10;9.60;;;;;;;;;;5031727;28;20461;-80
2023/07/05 02:54:06;;;;;;;14.00;10.30;;;;;;;;;;5035060;28;20522;-81
2023/07/05 02:56:34;;;;;;;12.90;10.17;;;;;;;;;;5034023;28;20484;-80
2023/07/05 02:59:00;;;;;;;14.53;9.80;;;;;;;;;;5035229;28;20451;-81
2023/07/05 03:01:27;;;;;;;10.87;9.73;;;;;;;;;;5033423;28;20465;-80
2023/07/05 03:03:54;;;;;;;16.30;10.67;;;;;;;;;;5027984;28;20796;-81
2023/07/05 03:06:21;;;;;;;20.53;10.83;;;;;;;;;;5030191;28;20462;-80
2023/07/05 03:08:48;;;;;;;14.43;10.87;;;;;;;;;;5022861;28;20447;-83
2023/07/05 03:11:14;;;;;;;14.13;10.37;;;;;;;;;;5032763;28;20461;-81
2023/07/05 03:13:42;;;;;;;13.97;10.30;;;;;;;;;;5033269;28;20454;-81
2023/07/05 03:16:08;;;;;;;16.67;10.17;;;;;;;;;;5027553;28;20614;-81
2023/07/05 03:18:35;;;;;;;14.60;10.83;;;;;;;;;;5023378;28;21000;-80
2023/07/05 03:21:01;;;;;;;21.43;10.77;;;;;;;;;;5028083;28;20448;-81
2023/07/05 03:23:29;;;;;;;13.60;10.30;;;;;;;;;;5034767;28;20465;-81
2023/07/05 03:25:56;;;;;;;13.77;10.30;;;;;;;;;;5035144;28;20416;-81
2023/07/05 03:28:23;;;;;;;12.60;9.83;;;;;;;;;;5031360;28;20989;-81
2023/07/05 03:30:55;;;;;;;28.07;12.10;;;;;;;;;;5026693;28;20424;-81
2023/07/05 03:33:21;;;;;;;21.67;12.47;;;;;;;;;;5033137;28;20469;-80
2023/07/05 03:35:53;;;;;;;18.70;11.77;;;;;;;;;;5033660;28;21003;-81
2023/07/05 03:38:20;;;;;;;16.83;10.67;;;;;;;;;;5027494;28;20472;-81
2023/07/05 03:40:46;;;;;;;17.60;11.53;;;;;;;;;;5028356;28;20434;-81
2023/07/05 03:43:12;;;;;;;21.60;11.73;;;;;;;;;;5034513;28;20455;-80
2023/07/05 03:45:39;;;;;;;15.63;10.83;;;;;;;;;;5032908;28;20795;-80
2023/07/05 03:48:07;;;;;;;18.53;11.70;;;;;;;;;;5034385;28;20447;-81
2023/07/05 03:50:35;;;;;;;16.43;11.50;;;;;;;;;;5032988;28;20456;-81
2023/07/05 03:53:01;;;;;;;15.17;10.83;;;;;;;;;;5034683;28;20447;-81
2023/07/05 03:55:27;;;;;;;15.80;11.00;;;;;;;;;;5033153;28;20459;-81
2023/07/05 03:57:56;;;;;;;17.23;11.50;;;;;;;;;;5034328;28;20454;-81
2023/07/05 04:00:22;;;;;;;13.97;11.00;;;;;;;;;;5033343;28;20427;-81
2023/07/05 04:02:49;;;;;;;18.33;12.53;;;;;;;;;;5034813;28;20968;-81
2023/07/05 04:05:16;;;;;;;16.80;11.73;;;;;;;;;;5035247;28;20427;-81
2023/07/05 04:07:43;;;;;;;17.80;11.33;;;;;;;;;;5032046;28;20439;-81
2023/07/05 04:10:10;;;;;;;20.00;11.37;;;;;;;;;;5030871;28;20976;-81
2023/07/05 04:12:37;;;;;;;17.87;13.20;;;;;;;;;;5025350;28;20444;-81
2023/07/05 04:15:03;;;;;;;22.00;13.67;;;;;;;;;;5033186;28;20953;-82
2023/07/05 04:17:30;;;;;;;27.17;16.17;;;;;;;;;;5033144;28;20463;-81
2023/07/05 04:19:56;;;;;;;18.67;13.23;;;;;;;;;;5026724;28;20417;-81
2023/07/05 04:22:24;;;;;;;19.47;13.40;;;;;;;;;;5033383;28;20510;-82
2023/07/05 04:24:50;;;;;;;19.67;11.93;;;;;;;;;;5029183;28;20416;-81
2023/07/05 04:27:17;;;;;;;16.63;12.87;;;;;;;;;;5034102;28;20450;-81
2023/07/05 04:29:43;;;;;;;20.90;12.63;;;;;;;;;;5032655;28;20991;-81
2023/07/05 04:32:09;;;;;;;17.57;13.33;;;;;;;;;;5034324;28;20435;-81
2023/07/05 04:34:36;;;;;;;19.53;12.67;;;;;;;;;;5022779;28;20483;-81
2023/07/05 04:37:02;;;;;;;22.27;14.97;;;;;;;;;;5032298;28;20839;-80
2023/07/05 04:39:30;;;;;;;23.30;17.60;;;;;;;;;;5032590;28;20448;-81
2023/07/05 04:41:56;;;;;;;23.20;16.60;;;;;;;;;;5034236;28;20438;-81
2023/07/05 04:44:22;;;;;;;22.43;16.33;;;;;;;;;;5030729;28;20473;-80
2023/07/05 04:46:49;;;;;;;33.50;19.73;;;;;;;;;;5034342;28;20460;-81
2023/07/05 04:49:15;;;;;;;26.27;19.23;;;;;;;;;;5038735;28;20484;-81
2023/07/05 04:51:41;;;;;;;26.60;19.47;;;;;;;;;;5053939;28;20949;-81
2023/07/05 04:54:08;;;;;;;28.47;18.83;;;;;;;;;;5037733;28;20483;-80
2023/07/05 04:56:36;;;;;;;30.73;17.93;;;;;;;;;;5049411;28;20450;-81
2023/07/05 04:59:02;;;;;;;27.77;17.70;;;;;;;;;;5053556;28;20483;-81
2023/07/05 05:01:28;;;;;;;25.93;16.90;;;;;;;;;;5051979;28;20442;-81
2023/07/05 05:03:57;;;;;;;26.70;19.57;;;;;;;;;;5036333;28;20447;-81
2023/07/05 05:06:24;;;;;;;19.97;14.87;;;;;;;;;;5024567;28;20419;-81
2023/07/05 05:08:50;;;;;;;22.60;14.10;;;;;;;;;;5040845;28;20450;-81
2023/07/05 05:11:17;;;;;;;22.63;14.57;;;;;;;;;;5041464;28;20437;-81
2023/07/05 05:13:45;;;;;;;25.07;13.97;;;;;;;;;;5053878;28;21010;-81
2023/07/05 05:16:11;;;;;;;17.90;13.47;;;;;;;;;;5051829;28;20458;-81
2023/07/05 05:18:38;;;;;;;18.90;13.13;;;;;;;;;;5043312;28;20450;-81
2023/07/05 05:21:05;;;;;;;21.73;12.77;;;;;;;;;;5045220;28;21007;-81
2023/07/05 05:23:31;;;;;;;16.13;12.93;;;;;;;;;;5049882;28;21027;-81
2023/07/05 05:25:58;;;;;;;16.67;13.27;;;;;;;;;;5045050;28;20498;-83
2023/07/05 05:28:24;;;;;;;14.97;11.30;;;;;;;;;;5050383;28;20451;-81
2023/07/05 05:30:52;;;;;;;14.60;12.10;;;;;;;;;;5045182;28;20423;-83
2023/07/05 05:33:18;;;;;;;20.97;12.10;;;;;;;;;;5050072;28;20446;-82
2023/07/05 05:35:48;;;;;;;15.10;12.03;;;;;;;;;;5047447;28;20987;-82
2023/07/05 05:38:14;;;;;;;16.80;12.90;;;;;;;;;;5048631;28;20985;-82
2023/07/05 05:40:41;;;;;;;20.50;12.70;;;;;;;;;;5052460;28;20480;-82
2023/07/05 05:43:08;;;;;;;17.10;12.90;;;;;;;;;;5047057;28;20447;-81
2023/07/05 05:45:35;;;;;;;17.23;12.60;;;;;;;;;;5054118;28;20839;-81
2023/07/05 05:48:02;;;;;;;18.00;13.00;;;;;;;;;;5055933;28;20474;-82
2023/07/05 05:50:30;;;;;;;14.57;11.57;;;;;;;;;;5055150;28;20437;-81
2023/07/05 05:52:59;;;;;;;13.03;10.40;;;;;;;;;;5048508;28;20522;-82
2023/07/05 05:55:25;;;;;;;15.13;11.43;;;;;;;;;;5045564;28;20418;-82
2023/07/05 05:57:53;;;;;;;14.63;11.40;;;;;;;;;;5048168;28;20447;-82
2023/07/05 06:00:20;;;;;;;20.93;11.47;;;;;;;;;;5052191;28;20418;-82
2023/07/05 06:02:47;;;;;;;14.43;12.20;;;;;;;;;;5052444;28;20468;-82
2023/07/05 06:05:15;;;;;;;15.90;10.90;;;;;;;;;;5053901;28;20435;-82
2023/07/05 06:07:42;;;;;;;13.93;10.07;;;;;;;;;;5046320;28;20447;-81
2023/07/05 06:10:11;;;;;;;14.53;11.30;;;;;;;;;;5056754;28;20468;-82
2023/07/05 06:12:41;;;;;;;12.50;10.93;;;;;;;;;;5037046;28;20430;-82
2023/07/05 06:15:08;;;;;;;13.20;10.57;;;;;;;;;;5056463;28;20814;-82
2023/07/05 06:17:35;;;;;;;13.80;11.87;;;;;;;;;;5051714;28;20491;-82
2023/07/05 06:20:01;;;;;;;17.23;12.23;;;;;;;;;;5050726;28;20427;-82
2023/07/05 06:22:29;;;;;;;17.20;11.67;;;;;;;;;;5052150;28;20439;-83
2023/07/05 06:24:55;;;;;;;15.30;11.00;;;;;;;;;;5045769;28;20499;-82
2023/07/05 06:27:21;;;;;;;17.27;11.10;;;;;;;;;;5042107;28;20443;-82
2023/07/05 06:29:48;;;;;;;17.47;12.40;;;;;;;;;;5047804;28;20482;-81
2023/07/05 06:32:14;;;;;;;15.47;11.80;;;;;;;;;;5052851;28;20808;-81
2023/07/05 06:34:40;;;;;;;12.90;11.40;;;;;;;;;;5038182;28;20530;-82
2023/07/05 06:37:07;;;;;;;18.63;11.07;;;;;;;;;;5056349;28;20480;-82
2023/07/05 06:39:36;;;;;;;16.27;11.80;;;;;;;;;;5055856;28;20482;-82
2023/07/05 06:42:03;;;;;;;13.00;10.87;;;;;;;;;;5045089;28;20411;-82
2023/07/05 06:44:30;;;;;;;17.73;12.70;;;;;;;;;;5043401;28;20479;-82
2023/07/05 06:46:56;;;;;;;14.50;10.30;;;;;;;;;;5051658;28;20955;-83
2023/07/05 06:49:23;;;;;;;15.17;10.97;;;;;;;;;;5050198;28;20473;-83
2023/07/05 06:51:50;;;;;;;15.60;9.67;;;;;;;;;;5041569;28;20423;-82
2023/07/05 06:54:16;;;;;;;12.50;9.90;;;;;;;;;;5055205;28;20458;-82
2023/07/05 06:56:44;;;;;;;9.13;7.83;;;;;;;;;;5054727;28;20487;-82
2023/07/05 06:59:10;;;;;;;9.20;7.70;;;;;;;;;;5049659;28;20978;-82
2023/07/05 07:01:36;;;;;;;9.87;6.70;;;;;;;;;;5051693;28;20444;-81
2023/07/05 07:04:05;;;;;;;7.17;4.23;;;;;;;;;;5045848;28;20463;-80
2023/07/05 07:06:32;;;;;;;11.63;4.30;;;;;;;;;;5053657;28;20448;-81
2023/07/05 07:08:58;;;;;;;10.30;4.30;;;;;;;;;;5054953;28;20478;-81
2023/07/05 07:11:24;;;;;;;7.70;4.07;;;;;;;;;;5053841;28;20448;-81
2023/07/05 07:13:53;;;;;;;3.93;3.27;;;;;;;;;;5039854;28;20471;-81
2023/07/05 07:16:20;;;;;;;5.00;3.30;;;;;;;;;;5051602;28;20818;-81
2023/07/05 07:18:46;;;;;;;6.10;3.43;;;;;;;;;;5055038;28;20498;-81
2023/07/05 07:21:13;;;;;;;4.50;3.30;;;;;;;;;;5044503;28;20788;-81
2023/07/05 07:23:39;;;;;;;6.17;3.90;;;;;;;;;;5050904;28;20472;-81
2023/07/05 07:26:07;;;;;;;17.30;3.90;;;;;;;;;;5046215;28;20444;-81
2023/07/05 07:28:34;;;;;;;7.33;3.23;;;;;;;;;;5054636;28;20992;-82
2023/07/05 07:31:10;;;;;;;8.47;4.17;;;;;;;;;;5050016;28;20471;-80
2023/07/05 07:33:36;;;;;;;3.63;2.97;;;;;;;;;;5035739;28;20510;-80
2023/07/05 07:36:07;;;;;;;5.03;3.97;;;;;;;;;;5055239;28;20447;-80
2023/07/05 07:38:34;;;;;;;5.57;3.60;;;;;;;;;;5045250;28;20451;-80
2023/07/05 07:41:00;;;;;;;5.20;3.60;;;;;;;;;;5053718;28;20929;-80
2023/07/05 07:43:26;;;;;;;5.60;3.67;;;;;;;;;;5046159;28;20484;-80
2023/07/05 07:45:53;;;;;;;4.30;3.87;;;;;;;;;;5050544;28;20452;-79
2023/07/05 07:48:21;;;;;;;6.77;3.87;;;;;;;;;;5046918;28;20903;-80
2023/07/05 07:50:50;;;;;;;5.50;3.73;;;;;;;;;;5045136;28;20444;-79
2023/07/05 07:53:17;;;;;;;5.20;3.80;;;;;;;;;;5054386;28;20467;-80
2023/07/05 07:55:44;;;;;;;6.63;3.20;;;;;;;;;;5052264;28;20459;-81
2023/07/05 07:58:10;;;;;;;3.30;2.90;;;;;;;;;;5050489;28;20464;-81
2023/07/05 08:00:37;;;;;;;4.20;3.40;;;;;;;;;;5054580;28;20447;-81
2023/07/05 08:03:06;;;;;;;8.60;3.50;;;;;;;;;;5054327;28;20467;-81
2023/07/05 08:05:35;;;;;;;5.20;3.10;;;;;;;;;;5044058;28;20473;-79
2023/07/05 08:08:01;;;;;;;5.33;3.13;;;;;;;;;;5049211;28;20476;-80
2023/07/05 08:10:28;;;;;;;3.97;3.23;;;;;;;;;;5052082;28;20454;-79
2023/07/05 08:12:56;;;;;;;4.93;3.70;;;;;;;;;;5044665;28;20467;-79
2023/07/05 08:15:23;;;;;;;4.87;3.50;;;;;;;;;;5046438;28;20455;-80
2023/07/05 08:17:49;;;;;;;5.90;3.40;;;;;;;;;;5040980;28;20474;-80
2023/07/05 08:20:16;;;;;;;6.13;3.70;;;;;;;;;;5035114;28;20471;-80
2023/07/05 08:22:44;;;;;;;5.10;3.63;;;;;;;;;;5040154;28;20969;-80
2023/07/05 08:25:10;;;;;;;6.40;3.37;;;;;;;;;;5047484;28;20507;-79
2023/07/05 08:27:39;;;;;;;11.10;4.20;;;;;;;;;;5066225;28;20487;-80
2023/07/05 08:30:06;;;;;;;6.37;4.00;;;;;;;;;;5045024;28;20449;-79
2023/07/05 08:32:33;;;;;;;4.17;3.30;;;;;;;;;;5048872;28;20452;-79
2023/07/05 08:34:59;;;;;;;3.33;2.20;;;;;;;;;;5047322;28;20447;-80
2023/07/05 08:37:25;;;;;;;4.20;2.83;;;;;;;;;;5048008;28;20485;-79
2023/07/05 08:39:53;;;;;;;3.53;2.93;;;;;;;;;;5049911;28;20457;-80
2023/07/05 08:42:25;;;;;;;4.10;3.00;;;;;;;;;;5039767;28;20453;-80
2023/07/05 08:44:56;;;;;;;6.00;3.97;;;;;;;;;;5051367;28;21015;-80
2023/07/05 08:47:27;;;;;;;4.00;3.40;;;;;;;;;;5050129;28;20479;-80
2023/07/05 08:49:59;;;;;;;7.30;4.57;;;;;;;;;;5038701;28;20817;-79
2023/07/05 08:52:27;;;;;;;4.57;3.87;;;;;;;;;;5046399;28;20519;-79
2023/07/05 08:54:58;;;;;;;6.73;3.50;;;;;;;;;;5039743;28;20423;-79
2023/07/05 08:57:27;;;;;;;9.87;3.90;;;;;;;;;;5052534;28;20483;-79
2023/07/05 08:59:56;;;;;;;4.23;3.57;;;;;;;;;;5030692;28;20446;-79
2023/07/05 09:02:23;;;;;;;5.93;3.90;;;;;;;;;;5031918;28;20540;-79
2023/07/05 09:04:50;;;;;;;4.20;3.50;;;;;;;;;;5020016;28;20452;-79
2023/07/05 09:07:23;;;;;;;5.07;3.97;;;;;;;;;;5014214;28;20835;-79
2023/07/05 09:09:55;;;;;;;6.83;3.87;;;;;;;;;;5026142;28;20532;-79
2023/07/05 09:12:26;;;;;;;6.40;2.97;;;;;;;;;;5017419;28;20508;-79
2023/07/05 09:15:08;;;;;;;3.87;3.47;;;;;;;;;;5040527;28;20471;-79
2023/07/05 09:17:41;;;;;;;6.43;2.90;;;;;;;;;;5033492;28;20500;-79
2023/07/05 09:20:25;;;;;;;3.60;2.70;;;;;;;;;;5036312;28;20820;-79
2023/07/05 09:22:54;;;;;;;2.63;2.37;;;;;;;;;;5040037;28;20838;-79
2023/07/05 09:25:22;;;;;;;2.83;2.53;;;;;;;;;;5041958;28;20937;-81
2023/07/05 09:27:52;;;;;;;7.33;2.93;;;;;;;;;;5041339;28;20490;-80
2023/07/05 09:30:20;;;;;;;4.57;2.23;;;;;;;;;;5048218;28;20458;-81
2023/07/05 09:32:51;;;;;;;3.90;2.77;;;;;;;;;;5046955;28;20468;-80
2023/07/05 09:35:19;;;;;;;4.67;2.53;;;;;;;;;;5047857;28;20868;-80
2023/07/05 09:37:55;;;;;;;4.83;2.77;;;;;;;;;;5047347;28;20965;-80
2023/07/05 09:40:24;;;;;;;5.37;3.30;;;;;;;;;;5021844;28;20937;-80
2023/07/05 09:42:55;;;;;;;4.97;3.03;;;;;;;;;;5030057;28;20471;-80
2023/07/05 09:45:22;;;;;;;3.67;2.77;;;;;;;;;;5032553;28;20445;-80
2023/07/05 09:47:51;;;;;;;7.67;2.50;;;;;;;;;;5017059;28;20465;-79
2023/07/05 09:50:18;;;;;;;5.70;3.40;;;;;;;;;;5027807;28;20447;-80
2023/07/05 09:52:45;;;;;;;4.00;2.50;;;;;;;;;;5031905;28;20484;-80
2023/07/05 09:55:13;;;;;;;4.83;2.73;;;;;;;;;;5029425;28;20931;-79
2023/07/05 09:57:40;;;;;;;5.20;2.30;;;;;;;;;;5033576;28;20489;-78
2023/07/05 10:00:20;;;;;;;2.93;2.33;;;;;;;;;;5027745;28;20449;-79
2023/07/05 10:02:48;;;;;;;3.37;2.60;;;;;;;;;;5031215;28;20460;-79
2023/07/05 10:05:16;;;;;;;5.47;2.57;;;;;;;;;;5022036;28;20448;-79
2023/07/05 10:07:52;;;;;;;4.53;2.70;;;;;;;;;;5029906;28;20464;-79
2023/07/05 10:10:19;;;;;;;3.53;2.90;;;;;;;;;;5029501;28;20452;-79
2023/07/05 10:12:46;;;;;;;2.97;2.53;;;;;;;;;;5029936;28;20514;-79
2023/07/05 10:15:21;;;;;;;4.07;2.77;;;;;;;;;;5029758;28;20455;-79
2023/07/05 10:17:48;;;;;;;4.23;2.60;;;;;;;;;;5030511;28;20487;-80
2023/07/05 10:20:19;;;;;;;4.07;2.47;;;;;;;;;;5031032;28;20950;-79
2023/07/05 10:22:45;;;;;;;4.13;2.40;;;;;;;;;;5030776;28;20468;-81
2023/07/05 10:25:15;;;;;;;2.87;2.57;;;;;;;;;;5027330;28;20444;-80
2023/07/05 10:27:43;;;;;;;5.50;3.77;;;;;;;;;;5017653;28;20472;-81
2023/07/05 10:30:13;;;;;;;6.90;2.70;;;;;;;;;;5028662;28;20449;-80
2023/07/05 10:32:41;;;;;;;4.10;2.70;;;;;;;;;;5021666;28;20504;-80
2023/07/05 10:35:13;;;;;;;3.80;2.43;;;;;;;;;;5026186;28;20460;-79
2023/07/05 10:37:39;;;;;;;4.10;2.10;;;;;;;;;;5019386;28;20555;-80
2023/07/05 10:40:09;;;;;;;2.47;2.27;;;;;;;;;;5022930;28;20824;-80
2023/07/05 10:42:36;;;;;;;2.40;2.20;;;;;;;;;;5023953;28;20445;-80
2023/07/05 10:45:03;;;;;;;2.53;2.00;;;;;;;;;;5029701;28;20449;-80
2023/07/05 10:47:30;;;;;;;4.47;2.67;;;;;;;;;;5029637;28;20485;-80
2023/07/05 10:50:02;;;;;;;8.03;3.07;;;;;;;;;;5035238;28;20783;-80
2023/07/05 10:52:31;;;;;;;6.40;2.33;;;;;;;;;;5026866;28;20448;-81
2023/07/05 10:55:01;;;;;;;3.60;2.00;;;;;;;;;;5030949;28;20448;-80
2023/07/05 10:57:30;;;;;;;5.93;2.23;;;;;;;;;;5033627;28;20471;-80
2023/07/05 10:59:59;;;;;;;4.10;2.40;;;;;;;;;;5028210;28;20780;-80
2023/07/05 11:02:36;;;;;;;3.83;2.60;;;;;;;;;;5027009;28;20613;-80
2023/07/05 11:05:04;;;;;;;3.77;2.87;;;;;;;;;;5027245;28;20496;-80
2023/07/05 11:07:32;;;;;;;9.20;4.13;;;;;;;;;;5022766;28;20471;-80
2023/07/05 11:09:58;;;;;;;7.40;3.20;;;;;;;;;;5031037;28;20942;-80
2023/07/05 11:12:27;;;;;;;8.10;2.70;;;;;;;;;;5032312;28;20788;-80
2023/07/05 11:14:54;;;;;;;4.03;2.70;;;;;;;;;;5032377;28;20453;-80
2023/07/05 11:17:23;;;;;;;2.77;2.40;;;;;;;;;;5031594;28;20871;-80
2023/07/05 11:19:49;;;;;;;4.57;3.10;;;;;;;;;;5033454;28;20507;-80
2023/07/05 11:22:34;;;;;;;10.67;2.60;;;;;;;;;;5032224;28;20956;-80
2023/07/05 11:25:02;;;;;;;2.97;2.17;;;;;;;;;;5032846;28;20813;-80
2023/07/05 11:27:42;;;;;;;4.47;2.53;;;;;;;;;;5031250;28;20461;-80
2023/07/05 11:30:34;;;;;;;2.57;2.00;;;;;;;;;;5024761;28;20436;-81
2023/07/05 11:33:22;;;;;;;5.30;2.13;;;;;;;;;;5026900;28;20475;-80
2023/07/05 11:35:50;;;;;;;4.83;2.03;;;;;;;;;;5034942;28;21015;-81
2023/07/05 11:38:36;;;;;;;4.70;2.67;;;;;;;;;;5034299;28;20473;-81
2023/07/05 11:41:05;;;;;;;4.20;2.13;;;;;;;;;;5025202;28;20456;-81
2023/07/05 11:43:39;;;;;;;3.57;2.00;;;;;;;;;;5029457;28;20473;-81
2023/07/05 11:46:25;;;;;;;4.10;2.47;;;;;;;;;;5032908;28;20445;-81
2023/07/05 11:48:52;;;;;;;9.60;2.00;;;;;;;;;;5027747;28;20926;-81
2023/07/05 11:51:25;;;;;;;2.20;1.53;;;;;;;;;;5030224;28;20461;-80
2023/07/05 11:53:53;;;;;;;4.90;1.53;;;;;;;;;;5032548;28;20472;-80
2023/07/05 11:56:25;;;;;;;4.60;1.40;;;;;;;;;;5024943;28;20440;-82
2023/07/05 11:58:52;;;;;;;1.80;1.60;;;;;;;;;;5026320;28;20495;-81
2023/07/05 12:01:22;;;;;;;2.23;1.50;;;;;;;;;;5028900;28;20449;-81
2023/07/05 12:03:53;;;;;;;2.87;1.70;;;;;;;;;;5034187;28;20483;-81
2023/07/05 12:06:21;;;;;;;3.10;1.60;;;;;;;;;;5022422;28;20449;-82
2023/07/05 12:08:50;;;;;;;3.80;1.57;;;;;;;;;;5032936;28;20473;-81
2023/07/05 12:11:28;;;;;;;1.97;1.77;;;;;;;;;;5032667;28;20441;-81
2023/07/05 12:13:59;;;;;;;4.30;1.97;;;;;;;;;;5030126;28;20472;-81
2023/07/05 12:16:28;;;;;;;3.20;2.20;;;;;;;;;;5022587;28;20438;-81
2023/07/05 12:18:54;;;;;;;2.30;1.10;;;;;;;;;;5028326;28;20476;-81
2023/07/05 12:21:21;;;;;;;2.03;1.67;;;;;;;;;;5027427;28;20445;-81
2023/07/05 12:23:50;;;;;;;3.43;1.30;;;;;;;;;;5023548;28;20477;-80
2023/07/05 12:26:19;;;;;;;1.90;1.30;;;;;;;;;;5026552;28;20445;-80
2023/07/05 12:28:48;;;;;;;6.53;1.80;;;;;;;;;;5032862;28;20990;-82
2023/07/05 12:31:19;;;;;;;3.83;1.60;;;;;;;;;;5024615;28;20449;-81
2023/07/05 12:33:51;;;;;;;3.77;1.97;;;;;;;;;;5024275;28;20443;-81
2023/07/05 12:36:20;;;;;;;2.53;1.50;;;;;;;;;;5031082;28;20456;-81
2023/07/05 12:38:48;;;;;;;5.70;1.50;;;;;;;;;;5033315;28;20447;-81
2023/07/05 12:41:17;;;;;;;3.10;1.43;;;;;;;;;;5027564;28;20527;-81
2023/07/05 12:43:44;;;;;;;5.70;1.77;;;;;;;;;;5031461;28;20467;-81
2023/07/05 12:46:14;;;;;;;4.83;1.43;;;;;;;;;;5033767;28;20452;-81
2023/07/05 12:48:41;;;;;;;8.53;1.23;;;;;;;;;;5032181;28;20863;-82
2023/07/05 12:51:12;;;;;;;8.33;2.03;;;;;;;;;;5030318;28;20925;-81
2023/07/05 12:53:38;;;;;;;4.63;1.37;;;;;;;;;;5026518;28;20532;-81
2023/07/05 12:56:08;;;;;;;13.43;1.70;;;;;;;;;;5026493;28;20453;-81
2023/07/05 12:58:35;;;;;;;2.17;1.50;;;;;;;;;;5029758;28;20539;-81
2023/07/05 13:01:01;;;;;;;11.33;2.73;;;;;;;;;;5027414;28;20424;-81
2023/07/05 13:03:31;;;;;;;11.43;2.00;;;;;;;;;;5032285;28;20472;-81
2023/07/05 13:05:58;;;;;;;3.80;1.63;;;;;;;;;;5032079;28;20445;-82
2023/07/05 13:08:25;;;;;;;6.77;2.13;;;;;;;;;;5031841;28;20469;-82
2023/07/05 13:10:51;;;;;;;5.10;2.23;;;;;;;;;;5031624;28;20453;-82
2023/07/05 13:13:35;;;;;;;9.27;2.00;;;;;;;;;;5028362;28;20521;-81
2023/07/05 13:16:16;;;;;;;8.40;2.70;;;;;;;;;;5032720;28;20448;-81
2023/07/05 13:18:54;;;;;;;6.60;2.17;;;;;;;;;;5032858;28;20480;-81
2023/07/05 13:21:20;;;;;;;8.13;2.30;;;;;;;;;;5030249;28;20958;-81
2023/07/05 13:23:48;;;;;;;9.70;2.50;;;;;;;;;;5018911;28;20461;-81
2023/07/05 13:26:19;;;;;;;3.53;2.30;;;;;;;;;;5026485;28;20921;-81
2023/07/05 13:28:46;;;;;;;3.83;2.00;;;;;;;;;;5023407;28;20481;-81
2023/07/05 13:31:18;;;;;;;6.00;2.23;;;;;;;;;;5032490;28;20445;-80
2023/07/05 13:33:46;;;;;;;5.97;3.33;;;;;;;;;;5026048;28;20447;-81
2023/07/05 13:36:12;;;;;;;3.40;2.47;;;;;;;;;;5026592;28;20445;-81
2023/07/05 13:38:39;;;;;;;5.67;2.47;;;;;;;;;;5031992;28;20479;-81
2023/07/05 13:41:06;;;;;;;2.10;1.67;;;;;;;;;;5022727;28;20448;-81
2023/07/05 13:43:33;;;;;;;5.73;2.33;;;;;;;;;;5028973;28;20535;-81
2023/07/05 13:46:00;;;;;;;5.17;2.37;;;;;;;;;;5030881;28;20858;-82
2023/07/05 13:48:27;;;;;;;9.17;2.30;;;;;;;;;;5020407;28;20488;-81
2023/07/05 13:50:55;;;;;;;6.93;2.57;;;;;;;;;;5032717;28;20947;-81
2023/07/05 13:53:23;;;;;;;9.37;2.10;;;;;;;;;;5031850;28;20476;-81
2023/07/05 13:55:50;;;;;;;10.20;3.00;;;;;;;;;;5033024;28;20451;-81
2023/07/05 13:58:17;;;;;;;4.80;2.63;;;;;;;;;;5031292;28;20473;-81
2023/07/05 14:00:44;;;;;;;4.53;2.73;;;;;;;;;;5031313;28;20909;-81
2023/07/05 14:03:10;;;;;;;10.33;2.67;;;;;;;;;;5017744;28;20469;-81
2023/07/05 14:05:37;;;;;;;5.27;2.73;;;;;;;;;;5031841;28;20445;-81
2023/07/05 14:08:06;;;;;;;8.13;2.90;;;;;;;;;;5030746;28;20493;-81
2023/07/05 14:10:33;;;;;;;11.20;2.67;;;;;;;;;;5020498;28;20440;-80
2023/07/05 14:13:00;;;;;;;6.30;2.60;;;;;;;;;;5024591;28;20444;-81
2023/07/05 14:15:30;;;;;;;7.77;2.80;;;;;;;;;;5033001;28;20855;-80
2023/07/05 14:17:56;;;;;;;5.10;1.97;;;;;;;;;;5034924;28;20472;-80
2023/07/05 14:20:24;;;;;;;6.40;2.43;;;;;;;;;;5032411;28;20455;-81
2023/07/05 14:22:50;;;;;;;8.43;2.23;;;;;;;;;;5035890;28;20449;-81
2023/07/05 14:25:20;;;;;;;5.47;2.30;;;;;;;;;;5030761;28;20445;-80
2023/07/05 14:27:46;;;;;;;7.27;2.70;;;;;;;;;;5034352;28;20471;-81
2023/07/05 14:30:13;;;;;;;3.90;1.80;;;;;;;;;;5036076;28;20437;-81
2023/07/05 14:32:40;;;;;;;6.90;2.30;;;;;;;;;;5033711;28;20498;-80
2023/07/05 14:35:12;;;;;;;7.47;2.63;;;;;;;;;;5029285;28;20787;-81
2023/07/05 14:37:38;;;;;;;7.93;2.20;;;;;;;;;;5034792;28;20476;-81
2023/07/05 14:40:05;;;;;;;8.97;2.20;;;;;;;;;;5032059;28;20462;-82